sensor_id;sensor_type;location;lat;lon;timestamp;P1;durP1;ratioP1;P2;durP2;ratioP2
63653;SDS011;49809;47.418;19.080;2023-05-29T00:00:56;6.57;;;2.53;;
63653;SDS011;49809;47.418;19.080;2023-05-29T00:04:31;5.30;;;2.83;;
63653;SDS011;49809;47.418;19.080;2023-05-29T00:08:07;5.03;;;3.00;;
63653;SDS011;49809;47.418;19.080;2023-05-29T00:11:39;5.12;;;2.90;;
63653;SDS011;49809;47.418;19.080;2023-05-29T00:15:09;8.02;;;3.28;;
63653;SDS011;49809;47.418;19.080;2023-05-29T00:18:44;4.50;;;2.75;;
63653;SDS011;49809;47.418;19.080;2023-05-29T00:22:03;4.53;;;2.45;;
63653;SDS011;49809;47.418;19.080;2023-05-29T00:25:56;4.07;;;2.62;;
63653;SDS011;49809;47.418;19.080;2023-05-29T00:29:09;4.72;;;2.60;;
63653;SDS011;49809;47.418;19.080;2023-05-29T00:32:30;5.60;;;2.70;;
63653;SDS011;49809;47.418;19.080;2023-05-29T00:36:02;4.62;;;2.37;;
63653;SDS011;49809;47.418;19.080;2023-05-29T00:39:35;7.25;;;2.50;;
63653;SDS011;49809;47.418;19.080;2023-05-29T00:43:12;6.32;;;2.97;;
63653;SDS011;49809;47.418;19.080;2023-05-29T00:46:32;7.55;;;2.72;;
63653;SDS011;49809;47.418;19.080;2023-05-29T00:50:05;6.45;;;3.05;;
63653;SDS011;49809;47.418;19.080;2023-05-29T00:53:35;6.07;;;2.80;;
63653;SDS011;49809;47.418;19.080;2023-05-29T00:56:40;5.57;;;2.92;;
63653;SDS011;49809;47.418;19.080;2023-05-29T01:00:03;5.95;;;2.80;;
63653;SDS011;49809;47.418;19.080;2023-05-29T01:03:34;4.75;;;2.80;;
63653;SDS011;49809;47.418;19.080;2023-05-29T01:07:15;4.90;;;3.10;;
63653;SDS011;49809;47.418;19.080;2023-05-29T01:10:44;5.43;;;2.90;;
63653;SDS011;49809;47.418;19.080;2023-05-29T01:14:28;6.70;;;3.20;;
63653;SDS011;49809;47.418;19.080;2023-05-29T01:18:51;4.03;;;2.67;;
63653;SDS011;49809;47.418;19.080;2023-05-29T01:26:45;5.97;;;2.92;;
63653;SDS011;49809;47.418;19.080;2023-05-29T01:30:04;6.55;;;2.60;;
63653;SDS011;49809;47.418;19.080;2023-05-29T01:34:01;5.97;;;2.85;;
63653;SDS011;49809;47.418;19.080;2023-05-29T01:37:27;4.40;;;2.33;;
63653;SDS011;49809;47.418;19.080;2023-05-29T01:41:13;8.18;;;2.85;;
63653;SDS011;49809;47.418;19.080;2023-05-29T01:44:39;4.90;;;2.40;;
63653;SDS011;49809;47.418;19.080;2023-05-29T01:48:13;3.37;;;2.05;;
63653;SDS011;49809;47.418;19.080;2023-05-29T01:51:36;6.43;;;2.70;;
63653;SDS011;49809;47.418;19.080;2023-05-29T01:55:12;6.35;;;2.78;;
63653;SDS011;49809;47.418;19.080;2023-05-29T01:59:18;4.20;;;2.40;;
63653;SDS011;49809;47.418;19.080;2023-05-29T02:02:42;4.70;;;2.53;;
63653;SDS011;49809;47.418;19.080;2023-05-29T02:06:27;5.75;;;2.50;;
63653;SDS011;49809;47.418;19.080;2023-05-29T02:09:56;4.55;;;2.37;;
63653;SDS011;49809;47.418;19.080;2023-05-29T02:13:48;5.07;;;2.12;;
63653;SDS011;49809;47.418;19.080;2023-05-29T02:17:29;4.35;;;2.40;;
63653;SDS011;49809;47.418;19.080;2023-05-29T02:20:58;4.43;;;2.78;;
63653;SDS011;49809;47.418;19.080;2023-05-29T02:24:17;3.85;;;2.30;;
63653;SDS011;49809;47.418;19.080;2023-05-29T02:27:40;4.85;;;2.40;;
63653;SDS011;49809;47.418;19.080;2023-05-29T02:31:41;3.12;;;1.85;;
63653;SDS011;49809;47.418;19.080;2023-05-29T02:35:24;3.65;;;2.12;;
63653;SDS011;49809;47.418;19.080;2023-05-29T02:38:55;6.22;;;2.65;;
63653;SDS011;49809;47.418;19.080;2023-05-29T02:42:12;5.07;;;2.37;;
63653;SDS011;49809;47.418;19.080;2023-05-29T02:45:28;4.15;;;2.42;;
63653;SDS011;49809;47.418;19.080;2023-05-29T02:49:02;4.53;;;2.35;;
63653;SDS011;49809;47.418;19.080;2023-05-29T02:52:33;5.60;;;2.65;;
63653;SDS011;49809;47.418;19.080;2023-05-29T02:56:45;6.43;;;2.87;;
63653;SDS011;49809;47.418;19.080;2023-05-29T03:00:09;5.72;;;2.60;;
63653;SDS011;49809;47.418;19.080;2023-05-29T03:03:32;4.93;;;2.37;;
63653;SDS011;49809;47.418;19.080;2023-05-29T03:07:08;3.97;;;2.50;;
63653;SDS011;49809;47.418;19.080;2023-05-29T03:10:35;6.22;;;2.75;;
63653;SDS011;49809;47.418;19.080;2023-05-29T03:14:11;4.87;;;2.50;;
63653;SDS011;49809;47.418;19.080;2023-05-29T03:18:03;5.10;;;2.55;;
63653;SDS011;49809;47.418;19.080;2023-05-29T03:25:02;11.95;;;2.53;;
63653;SDS011;49809;47.418;19.080;2023-05-29T03:28:28;7.15;;;2.72;;
63653;SDS011;49809;47.418;19.080;2023-05-29T03:31:48;4.85;;;2.58;;
63653;SDS011;49809;47.418;19.080;2023-05-29T03:35:19;3.65;;;2.08;;
63653;SDS011;49809;47.418;19.080;2023-05-29T03:39:22;4.50;;;2.85;;
63653;SDS011;49809;47.418;19.080;2023-05-29T03:43:05;6.03;;;3.08;;
63653;SDS011;49809;47.418;19.080;2023-05-29T03:47:11;6.47;;;2.72;;
63653;SDS011;49809;47.418;19.080;2023-05-29T03:51:16;5.28;;;2.70;;
63653;SDS011;49809;47.418;19.080;2023-05-29T03:54:40;4.47;;;2.25;;
63653;SDS011;49809;47.418;19.080;2023-05-29T03:58:27;3.78;;;2.28;;
63653;SDS011;49809;47.418;19.080;2023-05-29T04:02:31;5.12;;;2.30;;
63653;SDS011;49809;47.418;19.080;2023-05-29T04:06:35;4.50;;;2.10;;
63653;SDS011;49809;47.418;19.080;2023-05-29T04:10:42;4.10;;;2.20;;
63653;SDS011;49809;47.418;19.080;2023-05-29T04:14:28;3.08;;;2.12;;
63653;SDS011;49809;47.418;19.080;2023-05-29T04:17:54;6.70;;;2.40;;
63653;SDS011;49809;47.418;19.080;2023-05-29T04:22:05;4.82;;;2.12;;
63653;SDS011;49809;47.418;19.080;2023-05-29T04:26:11;5.43;;;2.47;;
63653;SDS011;49809;47.418;19.080;2023-05-29T04:30:00;4.20;;;2.50;;
63653;SDS011;49809;47.418;19.080;2023-05-29T04:33:25;4.05;;;2.28;;
63653;SDS011;49809;47.418;19.080;2023-05-29T04:36:53;4.55;;;2.25;;
63653;SDS011;49809;47.418;19.080;2023-05-29T04:40:26;4.55;;;2.40;;
63653;SDS011;49809;47.418;19.080;2023-05-29T04:44:01;5.93;;;2.40;;
63653;SDS011;49809;47.418;19.080;2023-05-29T04:47:58;10.68;;;2.70;;
63653;SDS011;49809;47.418;19.080;2023-05-29T04:51:50;5.30;;;2.78;;
63653;SDS011;49809;47.418;19.080;2023-05-29T04:56:02;6.45;;;2.90;;
63653;SDS011;49809;47.418;19.080;2023-05-29T04:59:51;5.85;;;2.60;;
63653;SDS011;49809;47.418;19.080;2023-05-29T05:03:31;5.20;;;2.62;;
63653;SDS011;49809;47.418;19.080;2023-05-29T05:07:38;3.15;;;2.42;;
63653;SDS011;49809;47.418;19.080;2023-05-29T05:11:16;5.50;;;2.50;;
63653;SDS011;49809;47.418;19.080;2023-05-29T05:15:26;3.35;;;2.20;;
63653;SDS011;49809;47.418;19.080;2023-05-29T05:19:31;5.40;;;2.67;;
63653;SDS011;49809;47.418;19.080;2023-05-29T05:23:45;5.40;;;2.75;;
63653;SDS011;49809;47.418;19.080;2023-05-29T05:27:35;4.20;;;2.53;;
63653;SDS011;49809;47.418;19.080;2023-05-29T05:31:23;3.70;;;2.60;;
63653;SDS011;49809;47.418;19.080;2023-05-29T05:35:11;6.50;;;2.78;;
63653;SDS011;49809;47.418;19.080;2023-05-29T05:39:00;5.40;;;2.60;;
63653;SDS011;49809;47.418;19.080;2023-05-29T05:42:57;5.57;;;3.07;;
63653;SDS011;49809;47.418;19.080;2023-05-29T05:46:41;4.18;;;2.42;;
63653;SDS011;49809;47.418;19.080;2023-05-29T05:50:13;3.62;;;2.35;;
63653;SDS011;49809;47.418;19.080;2023-05-29T05:53:43;5.18;;;2.83;;
63653;SDS011;49809;47.418;19.080;2023-05-29T05:57:17;6.47;;;2.45;;
63653;SDS011;49809;47.418;19.080;2023-05-29T06:00:48;4.82;;;2.95;;
63653;SDS011;49809;47.418;19.080;2023-05-29T06:04:29;7.22;;;3.00;;
63653;SDS011;49809;47.418;19.080;2023-05-29T06:07:58;4.75;;;2.30;;
63653;SDS011;49809;47.418;19.080;2023-05-29T06:11:29;6.18;;;2.62;;
63653;SDS011;49809;47.418;19.080;2023-05-29T06:15:02;6.55;;;2.60;;
63653;SDS011;49809;47.418;19.080;2023-05-29T06:18:40;4.68;;;2.60;;
63653;SDS011;49809;47.418;19.080;2023-05-29T06:22:11;4.35;;;2.83;;
63653;SDS011;49809;47.418;19.080;2023-05-29T06:25:52;7.62;;;2.70;;
63653;SDS011;49809;47.418;19.080;2023-05-29T06:29:16;4.68;;;2.78;;
63653;SDS011;49809;47.418;19.080;2023-05-29T06:32:44;4.10;;;2.65;;
63653;SDS011;49809;47.418;19.080;2023-05-29T06:36:47;5.62;;;2.62;;
63653;SDS011;49809;47.418;19.080;2023-05-29T06:40:52;4.57;;;2.30;;
63653;SDS011;49809;47.418;19.080;2023-05-29T06:44:37;4.53;;;2.50;;
63653;SDS011;49809;47.418;19.080;2023-05-29T06:48:09;4.03;;;2.50;;
63653;SDS011;49809;47.418;19.080;2023-05-29T06:51:31;3.70;;;2.47;;
63653;SDS011;49809;47.418;19.080;2023-05-29T06:55:09;3.05;;;2.40;;
63653;SDS011;49809;47.418;19.080;2023-05-29T06:58:25;3.53;;;2.40;;
63653;SDS011;49809;47.418;19.080;2023-05-29T07:01:32;4.25;;;2.22;;
63653;SDS011;49809;47.418;19.080;2023-05-29T07:04:40;5.80;;;3.05;;
63653;SDS011;49809;47.418;19.080;2023-05-29T07:07:53;4.37;;;2.72;;
63653;SDS011;49809;47.418;19.080;2023-05-29T07:14:05;3.28;;;2.33;;
63653;SDS011;49809;47.418;19.080;2023-05-29T07:17:14;3.08;;;2.22;;
63653;SDS011;49809;47.418;19.080;2023-05-29T07:20:24;3.72;;;2.65;;
63653;SDS011;49809;47.418;19.080;2023-05-29T07:23:28;4.22;;;2.33;;
63653;SDS011;49809;47.418;19.080;2023-05-29T07:26:32;3.92;;;2.60;;
63653;SDS011;49809;47.418;19.080;2023-05-29T07:29:40;5.03;;;2.58;;
63653;SDS011;49809;47.418;19.080;2023-05-29T07:32:53;4.90;;;2.72;;
63653;SDS011;49809;47.418;19.080;2023-05-29T07:36:06;5.95;;;2.67;;
63653;SDS011;49809;47.418;19.080;2023-05-29T07:39:18;3.42;;;2.45;;
63653;SDS011;49809;47.418;19.080;2023-05-29T07:42:33;3.83;;;2.50;;
63653;SDS011;49809;47.418;19.080;2023-05-29T07:45:39;5.50;;;2.67;;
63653;SDS011;49809;47.418;19.080;2023-05-29T07:48:44;6.90;;;2.60;;
63653;SDS011;49809;47.418;19.080;2023-05-29T07:51:51;4.80;;;2.40;;
63653;SDS011;49809;47.418;19.080;2023-05-29T07:55:19;7.10;;;2.53;;
63653;SDS011;49809;47.418;19.080;2023-05-29T07:58:26;4.62;;;2.53;;
63653;SDS011;49809;47.418;19.080;2023-05-29T08:01:51;3.47;;;2.30;;
63653;SDS011;49809;47.418;19.080;2023-05-29T08:05:17;4.55;;;2.25;;
63653;SDS011;49809;47.418;19.080;2023-05-29T08:08:20;6.68;;;2.80;;
63653;SDS011;49809;47.418;19.080;2023-05-29T08:11:27;2.70;;;2.05;;
63653;SDS011;49809;47.418;19.080;2023-05-29T08:14:30;5.95;;;2.20;;
63653;SDS011;49809;47.418;19.080;2023-05-29T08:17:39;4.00;;;2.35;;
63653;SDS011;49809;47.418;19.080;2023-05-29T08:20:42;5.03;;;2.40;;
63653;SDS011;49809;47.418;19.080;2023-05-29T08:23:51;5.55;;;2.50;;
63653;SDS011;49809;47.418;19.080;2023-05-29T08:30:31;5.62;;;2.30;;
63653;SDS011;49809;47.418;19.080;2023-05-29T08:33:34;3.30;;;2.20;;
63653;SDS011;49809;47.418;19.080;2023-05-29T08:36:41;3.40;;;2.42;;
63653;SDS011;49809;47.418;19.080;2023-05-29T08:40:18;5.07;;;2.70;;
63653;SDS011;49809;47.418;19.080;2023-05-29T08:43:22;3.83;;;2.47;;
63653;SDS011;49809;47.418;19.080;2023-05-29T08:46:46;4.62;;;2.60;;
63653;SDS011;49809;47.418;19.080;2023-05-29T08:49:53;4.60;;;2.50;;
63653;SDS011;49809;47.418;19.080;2023-05-29T08:52:58;4.28;;;2.20;;
63653;SDS011;49809;47.418;19.080;2023-05-29T08:56:02;5.35;;;2.50;;
63653;SDS011;49809;47.418;19.080;2023-05-29T08:59:05;4.00;;;2.42;;
63653;SDS011;49809;47.418;19.080;2023-05-29T09:02:14;4.72;;;2.37;;
63653;SDS011;49809;47.418;19.080;2023-05-29T09:05:21;10.25;;;2.58;;
63653;SDS011;49809;47.418;19.080;2023-05-29T09:08:45;5.32;;;2.45;;
63653;SDS011;49809;47.418;19.080;2023-05-29T09:11:49;6.90;;;2.80;;
63653;SDS011;49809;47.418;19.080;2023-05-29T09:14:53;4.07;;;2.72;;
63653;SDS011;49809;47.418;19.080;2023-05-29T09:17:56;7.85;;;3.50;;
63653;SDS011;49809;47.418;19.080;2023-05-29T09:21:02;7.45;;;3.00;;
63653;SDS011;49809;47.418;19.080;2023-05-29T09:24:13;5.37;;;3.50;;
63653;SDS011;49809;47.418;19.080;2023-05-29T09:27:18;6.35;;;3.85;;
63653;SDS011;49809;47.418;19.080;2023-05-29T09:30:31;10.93;;;2.70;;
63653;SDS011;49809;47.418;19.080;2023-05-29T09:33:34;10.15;;;2.78;;
63653;SDS011;49809;47.418;19.080;2023-05-29T09:36:51;8.00;;;3.12;;
63653;SDS011;49809;47.418;19.080;2023-05-29T09:40:03;6.65;;;2.67;;
63653;SDS011;49809;47.418;19.080;2023-05-29T09:43:16;6.20;;;2.90;;
63653;SDS011;49809;47.418;19.080;2023-05-29T09:46:58;4.12;;;2.67;;
63653;SDS011;49809;47.418;19.080;2023-05-29T09:50:35;5.03;;;2.65;;
63653;SDS011;49809;47.418;19.080;2023-05-29T09:53:40;7.07;;;2.62;;
63653;SDS011;49809;47.418;19.080;2023-05-29T09:56:51;3.90;;;2.70;;
63653;SDS011;49809;47.418;19.080;2023-05-29T09:59:58;4.43;;;2.80;;
63653;SDS011;49809;47.418;19.080;2023-05-29T10:03:13;4.65;;;2.70;;
63653;SDS011;49809;47.418;19.080;2023-05-29T10:06:40;3.35;;;2.42;;
63653;SDS011;49809;47.418;19.080;2023-05-29T10:10:09;5.62;;;2.47;;
63653;SDS011;49809;47.418;19.080;2023-05-29T10:13:14;5.28;;;2.85;;
63653;SDS011;49809;47.418;19.080;2023-05-29T10:16:22;5.05;;;3.37;;
63653;SDS011;49809;47.418;19.080;2023-05-29T10:19:30;7.90;;;2.87;;
63653;SDS011;49809;47.418;19.080;2023-05-29T10:22:40;3.75;;;2.67;;
63653;SDS011;49809;47.418;19.080;2023-05-29T10:26:10;4.00;;;3.00;;
63653;SDS011;49809;47.418;19.080;2023-05-29T10:32:38;4.43;;;2.90;;
63653;SDS011;49809;47.418;19.080;2023-05-29T10:40:27;6.20;;;3.15;;
63653;SDS011;49809;47.418;19.080;2023-05-29T10:44:37;6.85;;;3.20;;
63653;SDS011;49809;47.418;19.080;2023-05-29T10:47:55;7.47;;;2.92;;
63653;SDS011;49809;47.418;19.080;2023-05-29T10:51:28;6.80;;;2.95;;
63653;SDS011;49809;47.418;19.080;2023-05-29T10:54:49;5.40;;;2.78;;
63653;SDS011;49809;47.418;19.080;2023-05-29T11:01:27;4.35;;;3.08;;
63653;SDS011;49809;47.418;19.080;2023-05-29T11:04:30;5.40;;;2.92;;
63653;SDS011;49809;47.418;19.080;2023-05-29T11:11:11;5.37;;;2.90;;
63653;SDS011;49809;47.418;19.080;2023-05-29T11:20:50;5.00;;;2.83;;
63653;SDS011;49809;47.418;19.080;2023-05-29T11:24:00;5.03;;;2.83;;
63653;SDS011;49809;47.418;19.080;2023-05-29T11:27:11;4.78;;;2.72;;
63653;SDS011;49809;47.418;19.080;2023-05-29T11:30:15;6.10;;;2.85;;
63653;SDS011;49809;47.418;19.080;2023-05-29T11:33:30;4.57;;;2.80;;
63653;SDS011;49809;47.418;19.080;2023-05-29T11:36:37;4.82;;;3.08;;
63653;SDS011;49809;47.418;19.080;2023-05-29T11:39:40;4.70;;;2.90;;
63653;SDS011;49809;47.418;19.080;2023-05-29T11:42:46;4.57;;;2.78;;
63653;SDS011;49809;47.418;19.080;2023-05-29T11:46:16;4.72;;;2.90;;
63653;SDS011;49809;47.418;19.080;2023-05-29T11:49:30;6.85;;;3.12;;
63653;SDS011;49809;47.418;19.080;2023-05-29T11:52:44;4.40;;;3.03;;
63653;SDS011;49809;47.418;19.080;2023-05-29T11:55:48;4.85;;;3.08;;
63653;SDS011;49809;47.418;19.080;2023-05-29T11:59:00;9.20;;;3.37;;
63653;SDS011;49809;47.418;19.080;2023-05-29T12:02:25;4.87;;;3.03;;
63653;SDS011;49809;47.418;19.080;2023-05-29T12:08:50;5.53;;;2.90;;
63653;SDS011;49809;47.418;19.080;2023-05-29T12:12:03;4.53;;;3.12;;
63653;SDS011;49809;47.418;19.080;2023-05-29T12:15:07;5.70;;;2.92;;
63653;SDS011;49809;47.418;19.080;2023-05-29T12:18:12;5.60;;;3.05;;
63653;SDS011;49809;47.418;19.080;2023-05-29T12:21:16;3.37;;;2.55;;
63653;SDS011;49809;47.418;19.080;2023-05-29T12:24:23;4.35;;;2.92;;
63653;SDS011;49809;47.418;19.080;2023-05-29T12:28:06;4.25;;;3.00;;
63653;SDS011;49809;47.418;19.080;2023-05-29T12:31:14;3.95;;;2.95;;
63653;SDS011;49809;47.418;19.080;2023-05-29T12:34:33;5.28;;;2.85;;
63653;SDS011;49809;47.418;19.080;2023-05-29T12:37:44;4.07;;;2.92;;
63653;SDS011;49809;47.418;19.080;2023-05-29T12:40:52;3.33;;;2.67;;
63653;SDS011;49809;47.418;19.080;2023-05-29T12:43:56;5.22;;;2.45;;
63653;SDS011;49809;47.418;19.080;2023-05-29T12:47:03;4.18;;;3.10;;
63653;SDS011;49809;47.418;19.080;2023-05-29T12:53:28;4.20;;;2.50;;
63653;SDS011;49809;47.418;19.080;2023-05-29T12:56:33;3.87;;;2.80;;
63653;SDS011;49809;47.418;19.080;2023-05-29T12:59:36;5.62;;;3.10;;
63653;SDS011;49809;47.418;19.080;2023-05-29T13:02:40;3.80;;;2.92;;
63653;SDS011;49809;47.418;19.080;2023-05-29T13:05:43;6.37;;;2.90;;
63653;SDS011;49809;47.418;19.080;2023-05-29T13:08:55;3.70;;;2.72;;
63653;SDS011;49809;47.418;19.080;2023-05-29T13:12:00;5.77;;;2.87;;
63653;SDS011;49809;47.418;19.080;2023-05-29T13:15:09;4.53;;;2.90;;
63653;SDS011;49809;47.418;19.080;2023-05-29T13:18:16;4.70;;;2.70;;
63653;SDS011;49809;47.418;19.080;2023-05-29T13:21:20;4.10;;;2.95;;
63653;SDS011;49809;47.418;19.080;2023-05-29T13:24:23;5.22;;;3.12;;
63653;SDS011;49809;47.418;19.080;2023-05-29T13:27:27;5.90;;;3.10;;
63653;SDS011;49809;47.418;19.080;2023-05-29T13:30:30;5.40;;;3.10;;
63653;SDS011;49809;47.418;19.080;2023-05-29T13:33:33;3.97;;;2.80;;
63653;SDS011;49809;47.418;19.080;2023-05-29T13:36:38;5.43;;;3.03;;
63653;SDS011;49809;47.418;19.080;2023-05-29T13:42:47;5.20;;;2.72;;
63653;SDS011;49809;47.418;19.080;2023-05-29T13:45:51;3.92;;;2.75;;
63653;SDS011;49809;47.418;19.080;2023-05-29T13:48:54;6.20;;;3.33;;
63653;SDS011;49809;47.418;19.080;2023-05-29T13:51:59;6.32;;;3.35;;
63653;SDS011;49809;47.418;19.080;2023-05-29T13:55:02;6.93;;;2.97;;
63653;SDS011;49809;47.418;19.080;2023-05-29T13:58:11;4.68;;;3.08;;
63653;SDS011;49809;47.418;19.080;2023-05-29T14:01:16;5.22;;;3.35;;
63653;SDS011;49809;47.418;19.080;2023-05-29T14:04:26;4.68;;;2.90;;
63653;SDS011;49809;47.418;19.080;2023-05-29T14:07:35;5.25;;;3.00;;
63653;SDS011;49809;47.418;19.080;2023-05-29T14:10:59;7.28;;;2.85;;
63653;SDS011;49809;47.418;19.080;2023-05-29T14:14:03;5.07;;;3.20;;
63653;SDS011;49809;47.418;19.080;2023-05-29T14:17:07;5.90;;;3.22;;
63653;SDS011;49809;47.418;19.080;2023-05-29T14:20:11;3.30;;;2.90;;
63653;SDS011;49809;47.418;19.080;2023-05-29T14:23:37;4.12;;;3.08;;
63653;SDS011;49809;47.418;19.080;2023-05-29T14:27:14;7.12;;;3.15;;
63653;SDS011;49809;47.418;19.080;2023-05-29T14:30:18;4.75;;;2.75;;
63653;SDS011;49809;47.418;19.080;2023-05-29T14:33:21;6.47;;;2.80;;
63653;SDS011;49809;47.418;19.080;2023-05-29T14:36:27;7.85;;;3.25;;
63653;SDS011;49809;47.418;19.080;2023-05-29T14:39:29;3.85;;;3.00;;
63653;SDS011;49809;47.418;19.080;2023-05-29T14:42:33;3.90;;;2.60;;
63653;SDS011;49809;47.418;19.080;2023-05-29T14:48:47;4.97;;;3.10;;
63653;SDS011;49809;47.418;19.080;2023-05-29T14:51:51;4.60;;;3.00;;
63653;SDS011;49809;47.418;19.080;2023-05-29T14:55:00;6.93;;;2.87;;
63653;SDS011;49809;47.418;19.080;2023-05-29T14:58:24;5.40;;;3.25;;
63653;SDS011;49809;47.418;19.080;2023-05-29T15:01:27;7.22;;;3.10;;
63653;SDS011;49809;47.418;19.080;2023-05-29T15:04:31;5.05;;;3.30;;
63653;SDS011;49809;47.418;19.080;2023-05-29T15:07:37;5.93;;;3.15;;
63653;SDS011;49809;47.418;19.080;2023-05-29T15:10:46;4.03;;;3.03;;
63653;SDS011;49809;47.418;19.080;2023-05-29T15:13:49;5.50;;;3.00;;
63653;SDS011;49809;47.418;19.080;2023-05-29T15:16:53;4.35;;;3.00;;
63653;SDS011;49809;47.418;19.080;2023-05-29T15:20:23;4.60;;;3.05;;
63653;SDS011;49809;47.418;19.080;2023-05-29T15:23:49;7.45;;;2.90;;
63653;SDS011;49809;47.418;19.080;2023-05-29T15:26:54;4.20;;;3.07;;
63653;SDS011;49809;47.418;19.080;2023-05-29T15:30:12;3.97;;;3.20;;
63653;SDS011;49809;47.418;19.080;2023-05-29T15:33:36;4.65;;;3.10;;
63653;SDS011;49809;47.418;19.080;2023-05-29T15:36:43;5.30;;;3.30;;
63653;SDS011;49809;47.418;19.080;2023-05-29T15:39:50;5.47;;;3.20;;
63653;SDS011;49809;47.418;19.080;2023-05-29T15:42:57;4.97;;;2.80;;
63653;SDS011;49809;47.418;19.080;2023-05-29T15:46:01;4.53;;;2.90;;
63653;SDS011;49809;47.418;19.080;2023-05-29T15:49:07;6.07;;;3.30;;
63653;SDS011;49809;47.418;19.080;2023-05-29T15:52:12;5.70;;;2.90;;
63653;SDS011;49809;47.418;19.080;2023-05-29T15:55:18;4.53;;;2.90;;
63653;SDS011;49809;47.418;19.080;2023-05-29T15:58:29;4.68;;;3.10;;
63653;SDS011;49809;47.418;19.080;2023-05-29T16:04:51;3.58;;;2.50;;
63653;SDS011;49809;47.418;19.080;2023-05-29T16:08:27;5.18;;;3.08;;
63653;SDS011;49809;47.418;19.080;2023-05-29T16:11:39;6.43;;;2.97;;
63653;SDS011;49809;47.418;19.080;2023-05-29T16:14:45;4.32;;;3.12;;
63653;SDS011;49809;47.418;19.080;2023-05-29T16:17:49;3.95;;;2.87;;
63653;SDS011;49809;47.418;19.080;2023-05-29T16:20:52;4.50;;;3.10;;
63653;SDS011;49809;47.418;19.080;2023-05-29T16:23:59;4.40;;;3.12;;
63653;SDS011;49809;47.418;19.080;2023-05-29T16:27:04;5.20;;;3.47;;
63653;SDS011;49809;47.418;19.080;2023-05-29T16:30:08;4.03;;;2.87;;
63653;SDS011;49809;47.418;19.080;2023-05-29T16:33:11;7.12;;;2.92;;
63653;SDS011;49809;47.418;19.080;2023-05-29T16:36:17;4.40;;;2.70;;
63653;SDS011;49809;47.418;19.080;2023-05-29T16:39:22;10.90;;;3.30;;
63653;SDS011;49809;47.418;19.080;2023-05-29T16:42:25;4.45;;;3.12;;
63653;SDS011;49809;47.418;19.080;2023-05-29T16:45:28;5.97;;;3.03;;
63653;SDS011;49809;47.418;19.080;2023-05-29T16:48:34;6.25;;;3.37;;
63653;SDS011;49809;47.418;19.080;2023-05-29T16:51:41;5.40;;;3.25;;
63653;SDS011;49809;47.418;19.080;2023-05-29T16:58:42;6.15;;;3.62;;
63653;SDS011;49809;47.418;19.080;2023-05-29T17:01:46;5.60;;;3.53;;
63653;SDS011;49809;47.418;19.080;2023-05-29T17:04:49;5.15;;;3.40;;
63653;SDS011;49809;47.418;19.080;2023-05-29T17:07:53;6.60;;;3.47;;
63653;SDS011;49809;47.418;19.080;2023-05-29T17:10:56;3.92;;;2.90;;
63653;SDS011;49809;47.418;19.080;2023-05-29T17:13:59;6.85;;;3.05;;
63653;SDS011;49809;47.418;19.080;2023-05-29T17:17:35;5.90;;;3.35;;
63653;SDS011;49809;47.418;19.080;2023-05-29T17:20:39;5.07;;;3.12;;
63653;SDS011;49809;47.418;19.080;2023-05-29T17:23:44;4.07;;;3.00;;
63653;SDS011;49809;47.418;19.080;2023-05-29T17:26:48;5.22;;;3.03;;
63653;SDS011;49809;47.418;19.080;2023-05-29T17:30:24;6.50;;;3.17;;
63653;SDS011;49809;47.418;19.080;2023-05-29T17:37:57;5.70;;;3.30;;
63653;SDS011;49809;47.418;19.080;2023-05-29T17:41:03;5.50;;;3.22;;
63653;SDS011;49809;47.418;19.080;2023-05-29T17:44:09;5.70;;;2.77;;
63653;SDS011;49809;47.418;19.080;2023-05-29T17:47:12;3.47;;;2.58;;
63653;SDS011;49809;47.418;19.080;2023-05-29T17:50:16;4.85;;;3.25;;
63653;SDS011;49809;47.418;19.080;2023-05-29T17:53:19;7.53;;;3.83;;
63653;SDS011;49809;47.418;19.080;2023-05-29T17:56:23;4.40;;;2.92;;
63653;SDS011;49809;47.418;19.080;2023-05-29T17:59:30;6.80;;;2.90;;
63653;SDS011;49809;47.418;19.080;2023-05-29T18:02:36;6.32;;;3.15;;
63653;SDS011;49809;47.418;19.080;2023-05-29T18:05:40;5.95;;;3.50;;
63653;SDS011;49809;47.418;19.080;2023-05-29T18:08:44;5.25;;;3.10;;
63653;SDS011;49809;47.418;19.080;2023-05-29T18:11:48;5.57;;;2.97;;
63653;SDS011;49809;47.418;19.080;2023-05-29T18:14:53;5.40;;;3.10;;
63653;SDS011;49809;47.418;19.080;2023-05-29T18:17:57;4.28;;;3.10;;
63653;SDS011;49809;47.418;19.080;2023-05-29T18:21:00;5.62;;;3.65;;
63653;SDS011;49809;47.418;19.080;2023-05-29T18:24:04;7.28;;;3.45;;
63653;SDS011;49809;47.418;19.080;2023-05-29T18:27:32;4.90;;;3.40;;
63653;SDS011;49809;47.418;19.080;2023-05-29T18:30:36;6.57;;;3.28;;
63653;SDS011;49809;47.418;19.080;2023-05-29T18:37:10;9.27;;;3.67;;
63653;SDS011;49809;47.418;19.080;2023-05-29T18:40:15;5.33;;;3.63;;
63653;SDS011;49809;47.418;19.080;2023-05-29T18:43:40;4.32;;;3.50;;
63653;SDS011;49809;47.418;19.080;2023-05-29T18:46:45;5.68;;;3.90;;
63653;SDS011;49809;47.418;19.080;2023-05-29T18:50:28;4.90;;;3.65;;
63653;SDS011;49809;47.418;19.080;2023-05-29T18:53:53;6.07;;;3.67;;
63653;SDS011;49809;47.418;19.080;2023-05-29T18:57:18;7.30;;;3.97;;
63653;SDS011;49809;47.418;19.080;2023-05-29T19:01:04;6.93;;;3.92;;
63653;SDS011;49809;47.418;19.080;2023-05-29T19:04:43;7.87;;;5.03;;
63653;SDS011;49809;47.418;19.080;2023-05-29T19:08:12;9.65;;;4.47;;
63653;SDS011;49809;47.418;19.080;2023-05-29T19:11:17;8.07;;;4.07;;
63653;SDS011;49809;47.418;19.080;2023-05-29T19:14:46;6.87;;;4.25;;
63653;SDS011;49809;47.418;19.080;2023-05-29T19:17:52;7.93;;;4.30;;
63653;SDS011;49809;47.418;19.080;2023-05-29T19:21:18;7.03;;;4.28;;
63653;SDS011;49809;47.418;19.080;2023-05-29T19:24:27;8.23;;;4.60;;
63653;SDS011;49809;47.418;19.080;2023-05-29T19:28:05;8.40;;;4.15;;
63653;SDS011;49809;47.418;19.080;2023-05-29T19:31:16;6.68;;;3.80;;
63653;SDS011;49809;47.418;19.080;2023-05-29T19:34:42;7.30;;;4.37;;
63653;SDS011;49809;47.418;19.080;2023-05-29T19:37:46;9.15;;;3.85;;
63653;SDS011;49809;47.418;19.080;2023-05-29T19:40:59;6.45;;;4.10;;
63653;SDS011;49809;47.418;19.080;2023-05-29T19:44:22;9.32;;;4.25;;
63653;SDS011;49809;47.418;19.080;2023-05-29T19:47:28;8.07;;;4.07;;
63653;SDS011;49809;47.418;19.080;2023-05-29T19:50:34;7.12;;;4.15;;
63653;SDS011;49809;47.418;19.080;2023-05-29T19:53:38;8.60;;;4.55;;
63653;SDS011;49809;47.418;19.080;2023-05-29T19:56:43;7.15;;;4.70;;
63653;SDS011;49809;47.418;19.080;2023-05-29T19:59:47;10.18;;;4.10;;
63653;SDS011;49809;47.418;19.080;2023-05-29T20:02:52;9.10;;;5.00;;
63653;SDS011;49809;47.418;19.080;2023-05-29T20:06:00;6.30;;;4.70;;
63653;SDS011;49809;47.418;19.080;2023-05-29T20:09:20;7.57;;;4.53;;
63653;SDS011;49809;47.418;19.080;2023-05-29T20:12:27;7.00;;;4.18;;
63653;SDS011;49809;47.418;19.080;2023-05-29T20:15:56;6.62;;;4.37;;
63653;SDS011;49809;47.418;19.080;2023-05-29T20:22:59;7.60;;;4.70;;
63653;SDS011;49809;47.418;19.080;2023-05-29T20:26:24;6.47;;;4.10;;
63653;SDS011;49809;47.418;19.080;2023-05-29T20:29:51;9.32;;;4.57;;
63653;SDS011;49809;47.418;19.080;2023-05-29T20:33:33;9.23;;;5.12;;
63653;SDS011;49809;47.418;19.080;2023-05-29T20:36:54;8.70;;;4.85;;
63653;SDS011;49809;47.418;19.080;2023-05-29T20:40:19;7.40;;;4.75;;
63653;SDS011;49809;47.418;19.080;2023-05-29T20:43:51;6.93;;;4.62;;
63653;SDS011;49809;47.418;19.080;2023-05-29T20:47:34;7.68;;;4.93;;
63653;SDS011;49809;47.418;19.080;2023-05-29T20:51:11;7.70;;;4.82;;
63653;SDS011;49809;47.418;19.080;2023-05-29T20:54:44;8.07;;;4.50;;